Time;durP1;ratioP1;P1;durP2;ratioP2;P2;SDS_P1;SDS_P2;PMS_P1;PMS_P2;Temp;Humidity;BMP_temperature;BMP_pressure;BME280_temperature;BME280_humidity;BME280_pressure;Samples;Min_cycle;Max_cycle;Signal;HPM_P1;HPM_P2
2023/06/30 00:01:33;;;;;;;1.63;1.48;;;;;;;;;;5065299;28;20058;-84
2023/06/30 00:03:58;;;;;;;1.58;1.33;;;;;;;;;;5063383;28;20052;-84
2023/06/30 00:06:24;;;;;;;1.98;1.67;;;;;;;;;;5071480;28;20435;-85
2023/06/30 00:08:50;;;;;;;2.38;1.45;;;;;;;;;;5066811;28;20067;-86
2023/06/30 00:11:17;;;;;;;1.35;1.23;;;;;;;;;;5057673;28;20384;-86
2023/06/30 00:13:43;;;;;;;2.15;1.42;;;;;;;;;;5068525;28;20539;-86
2023/06/30 00:16:09;;;;;;;2.70;1.75;;;;;;;;;;5065781;28;20032;-86
2023/06/30 00:18:35;;;;;;;1.90;1.70;;;;;;;;;;5057089;28;20146;-86
2023/06/30 00:21:02;;;;;;;2.40;1.50;;;;;;;;;;5047582;28;20055;-85
2023/06/30 00:23:28;;;;;;;1.88;1.63;;;;;;;;;;5043268;28;20029;-86
2023/06/30 00:25:54;;;;;;;1.75;1.13;;;;;;;;;;5064922;28;20567;-85
2023/06/30 00:28:20;;;;;;;2.45;1.20;;;;;;;;;;5039888;28;20020;-84
2023/06/30 00:30:45;;;;;;;2.10;1.55;;;;;;;;;;5068559;28;20043;-84
2023/06/30 00:33:11;;;;;;;1.63;1.50;;;;;;;;;;5039395;28;20035;-85
2023/06/30 00:54:57;;;;;;;2.53;2.17;;;;;;;;;;5107490;27;20413;-83
2023/06/30 00:57:23;;;;;;;2.22;1.60;;;;;;;;;;5107207;28;20073;-85
2023/06/30 00:59:51;;;;;;;1.52;1.27;;;;;;;;;;5107424;28;20115;-83
2023/06/30 01:02:28;;;;;;;1.92;1.60;;;;;;;;;;5101384;28;20140;-84
2023/06/30 01:05:29;;;;;;;1.55;1.30;;;;;;;;;;5104770;28;20027;-83
2023/06/30 01:08:13;;;;;;;2.47;1.67;;;;;;;;;;5094043;28;20042;-83
2023/06/30 01:10:42;;;;;;;1.75;1.48;;;;;;;;;;5106440;28;20024;-83
2023/06/30 01:13:08;;;;;;;2.40;1.35;;;;;;;;;;5107791;28;20546;-85
2023/06/30 01:15:34;;;;;;;1.80;1.40;;;;;;;;;;5106699;28;20513;-83
2023/06/30 01:18:01;;;;;;;1.75;1.30;;;;;;;;;;5106784;28;20024;-84
2023/06/30 01:20:29;;;;;;;1.52;1.20;;;;;;;;;;5107768;28;20395;-83
2023/06/30 01:23:11;;;;;;;2.00;1.50;;;;;;;;;;5104286;28;20015;-85
2023/06/30 01:25:38;;;;;;;1.90;1.10;;;;;;;;;;5106174;28;20431;-85
2023/06/30 01:28:04;;;;;;;2.03;1.60;;;;;;;;;;5108591;28;20030;-85
2023/06/30 01:30:29;;;;;;;1.75;1.20;;;;;;;;;;5105142;28;20036;-85
2023/06/30 01:32:56;;;;;;;2.38;1.52;;;;;;;;;;5107850;28;20076;-85
2023/06/30 01:35:22;;;;;;;1.73;1.63;;;;;;;;;;5107301;28;20035;-85
2023/06/30 01:37:47;;;;;;;2.30;1.58;;;;;;;;;;5109269;28;20063;-85
2023/06/30 01:40:13;;;;;;;0.68;0.68;;;;;;;;;;5108428;28;20173;-86
2023/06/30 01:42:39;;;;;;;1.75;1.25;;;;;;;;;;5105886;28;20020;-87
2023/06/30 01:45:06;;;;;;;1.48;1.13;;;;;;;;;;5109044;28;20080;-87
2023/06/30 01:47:32;;;;;;;3.15;1.95;;;;;;;;;;5102233;28;20453;-87
2023/06/30 01:49:58;;;;;;;1.80;1.33;;;;;;;;;;5104825;28;20099;-86
2023/06/30 01:52:24;;;;;;;1.98;1.27;;;;;;;;;;5107916;28;20036;-86
2023/06/30 01:54:50;;;;;;;2.67;1.70;;;;;;;;;;5096355;28;20048;-86
2023/06/30 01:57:15;;;;;;;1.27;1.02;;;;;;;;;;5094196;28;20027;-85
2023/06/30 01:59:40;;;;;;;1.80;1.50;;;;;;;;;;5092498;28;20137;-84
2023/06/30 02:02:06;;;;;;;1.33;1.05;;;;;;;;;;5094275;28;20027;-86
2023/06/30 02:04:31;;;;;;;1.70;1.05;;;;;;;;;;5091303;28;20024;-86
2023/06/30 02:06:57;;;;;;;1.38;1.20;;;;;;;;;;5125937;27;20032;-86
2023/06/30 02:09:22;;;;;;;1.48;1.10;;;;;;;;;;5095407;28;20077;-85
2023/06/30 02:11:48;;;;;;;1.17;0.93;;;;;;;;;;5094930;28;20020;-85
2023/06/30 02:14:13;;;;;;;1.25;1.15;;;;;;;;;;5092804;28;20056;-86
2023/06/30 02:16:38;;;;;;;1.45;1.00;;;;;;;;;;5093660;28;20063;-85
2023/06/30 02:19:04;;;;;;;1.45;1.23;;;;;;;;;;5090879;28;20027;-85
2023/06/30 02:21:29;;;;;;;1.38;1.10;;;;;;;;;;5093025;28;20082;-85
2023/06/30 02:23:55;;;;;;;0.88;0.80;;;;;;;;;;5092728;28;20527;-84
2023/06/30 02:26:20;;;;;;;1.98;1.42;;;;;;;;;;5093642;28;20020;-85
2023/06/30 02:28:46;;;;;;;1.73;1.52;;;;;;;;;;5092029;28;20059;-85
2023/06/30 02:31:11;;;;;;;1.95;1.75;;;;;;;;;;5092345;28;20028;-83
2023/06/30 02:33:37;;;;;;;1.42;1.10;;;;;;;;;;5090291;28;20071;-84
2023/06/30 02:36:03;;;;;;;1.30;1.20;;;;;;;;;;5092108;28;20055;-84
2023/06/30 02:38:29;;;;;;;2.20;0.70;;;;;;;;;;5088905;28;20512;-84
2023/06/30 02:40:55;;;;;;;2.17;1.67;;;;;;;;;;5091671;28;20023;-85
2023/06/30 02:43:20;;;;;;;1.05;0.95;;;;;;;;;;5093381;28;20352;-84
2023/06/30 02:45:46;;;;;;;0.60;0.60;;;;;;;;;;5094188;28;20031;-84
2023/06/30 02:48:11;;;;;;;2.33;1.20;;;;;;;;;;5094453;28;20054;-84
2023/06/30 02:50:37;;;;;;;1.17;0.90;;;;;;;;;;5091712;28;20038;-85
2023/06/30 02:53:03;;;;;;;1.80;1.42;;;;;;;;;;5093124;28;20079;-83
2023/06/30 02:55:28;;;;;;;1.83;1.30;;;;;;;;;;5092888;28;20032;-86
2023/06/30 02:57:54;;;;;;;1.27;1.08;;;;;;;;;;5090807;28;20031;-84
2023/06/30 03:00:20;;;;;;;1.15;0.80;;;;;;;;;;5090440;28;20126;-85
2023/06/30 03:02:45;;;;;;;1.50;0.90;;;;;;;;;;5093477;28;20044;-86
2023/06/30 03:05:11;;;;;;;1.67;0.93;;;;;;;;;;5090535;28;20383;-85
2023/06/30 03:07:36;;;;;;;1.17;0.98;;;;;;;;;;5092308;28;20033;-84
2023/06/30 03:10:02;;;;;;;4.65;1.17;;;;;;;;;;5092723;28;20031;-83
2023/06/30 03:12:28;;;;;;;0.82;0.65;;;;;;;;;;5092216;28;20023;-83
2023/06/30 03:14:53;;;;;;;1.17;0.90;;;;;;;;;;5090318;28;20024;-83
2023/06/30 03:17:19;;;;;;;1.38;1.20;;;;;;;;;;5094013;28;20108;-84
2023/06/30 03:19:45;;;;;;;1.50;1.20;;;;;;;;;;5094226;28;20052;-84
2023/06/30 03:22:10;;;;;;;1.60;1.25;;;;;;;;;;5093398;28;20398;-85
2023/06/30 03:24:36;;;;;;;2.15;1.35;;;;;;;;;;5091339;28;20106;-85
2023/06/30 03:27:02;;;;;;;1.55;0.85;;;;;;;;;;5090988;28;20020;-85
2023/06/30 03:29:27;;;;;;;2.08;1.35;;;;;;;;;;5094167;28;20047;-86
2023/06/30 03:31:53;;;;;;;1.38;1.02;;;;;;;;;;5094212;28;20038;-83
2023/06/30 03:34:19;;;;;;;2.35;1.63;;;;;;;;;;5090152;28;20036;-85
2023/06/30 03:36:45;;;;;;;1.05;0.98;;;;;;;;;;5092247;28;20024;-85
2023/06/30 03:39:10;;;;;;;1.95;1.23;;;;;;;;;;5091001;28;20106;-85
2023/06/30 03:41:36;;;;;;;1.50;1.40;;;;;;;;;;5090197;28;20020;-87
2023/06/30 03:44:01;;;;;;;6.72;2.05;;;;;;;;;;5088008;28;20031;-85
2023/06/30 03:46:27;;;;;;;1.58;1.40;;;;;;;;;;5093198;28;20129;-86
2023/06/30 03:48:52;;;;;;;1.67;1.23;;;;;;;;;;5093244;28;20016;-86
2023/06/30 03:51:18;;;;;;;3.65;2.20;;;;;;;;;;5094459;28;20612;-86
2023/06/30 03:53:43;;;;;;;2.58;1.55;;;;;;;;;;5093936;28;20036;-86
2023/06/30 03:56:09;;;;;;;1.55;1.45;;;;;;;;;;5093082;28;20028;-85
2023/06/30 03:58:35;;;;;;;1.35;1.25;;;;;;;;;;5091240;28;20479;-86
2023/06/30 04:01:00;;;;;;;2.08;1.58;;;;;;;;;;5092148;28;20020;-86
2023/06/30 04:03:26;;;;;;;1.85;1.63;;;;;;;;;;5091325;28;20032;-88
2023/06/30 04:05:52;;;;;;;6.05;2.05;;;;;;;;;;5091943;28;20478;-87
2023/06/30 04:08:18;;;;;;;1.80;1.55;;;;;;;;;;5094276;28;20031;-86
2023/06/30 04:10:44;;;;;;;3.33;2.28;;;;;;;;;;5095925;28;20020;-89
2023/06/30 04:13:10;;;;;;;1.75;1.60;;;;;;;;;;5094437;28;20157;-89
2023/06/30 04:15:35;;;;;;;3.35;2.17;;;;;;;;;;5095295;28;20372;-88
2023/06/30 04:18:01;;;;;;;5.00;2.40;;;;;;;;;;5093022;28;20043;-86
2023/06/30 04:20:27;;;;;;;2.60;1.75;;;;;;;;;;5096217;28;20032;-86
2023/06/30 04:22:52;;;;;;;4.22;2.20;;;;;;;;;;5092990;28;20027;-86
2023/06/30 04:25:18;;;;;;;5.53;2.65;;;;;;;;;;5091187;28;20046;-87
2023/06/30 04:27:43;;;;;;;6.65;2.45;;;;;;;;;;5092529;28;20031;-84
2023/06/30 04:30:09;;;;;;;3.40;2.05;;;;;;;;;;5088989;28;20028;-86
2023/06/30 04:32:38;;;;;;;3.08;2.55;;;;;;;;;;5090348;28;20592;-84
2023/06/30 04:35:04;;;;;;;2.80;2.03;;;;;;;;;;5091769;28;20032;-84
2023/06/30 04:37:30;;;;;;;2.83;1.45;;;;;;;;;;5090146;28;20084;-85
2023/06/30 04:39:58;;;;;;;3.10;2.45;;;;;;;;;;5089992;28;20031;-85
2023/06/30 04:42:23;;;;;;;3.17;2.33;;;;;;;;;;5095616;28;20024;-86
2023/06/30 04:44:50;;;;;;;2.63;1.75;;;;;;;;;;5091544;28;20428;-86
2023/06/30 04:47:18;;;;;;;9.18;2.55;;;;;;;;;;5094847;28;20023;-86
2023/06/30 04:49:44;;;;;;;4.13;2.40;;;;;;;;;;5093717;28;20035;-86
2023/06/30 04:52:10;;;;;;;3.10;1.80;;;;;;;;;;5090592;28;20028;-86
2023/06/30 04:54:35;;;;;;;3.92;2.45;;;;;;;;;;5088085;28;20040;-87
2023/06/30 04:57:01;;;;;;;2.83;2.10;;;;;;;;;;5088335;28;20032;-87
2023/06/30 04:59:26;;;;;;;2.72;1.85;;;;;;;;;;5090439;28;20027;-86
2023/06/30 05:01:52;;;;;;;2.60;2.00;;;;;;;;;;5091748;28;20023;-87
2023/06/30 05:04:18;;;;;;;3.60;2.15;;;;;;;;;;5090917;28;20024;-86
2023/06/30 05:06:43;;;;;;;3.17;2.13;;;;;;;;;;5091391;28;20028;-86
2023/06/30 05:09:09;;;;;;;13.02;2.55;;;;;;;;;;5089031;28;20130;-87
2023/06/30 05:11:34;;;;;;;5.25;2.67;;;;;;;;;;5089741;28;20024;-85
2023/06/30 05:14:00;;;;;;;3.30;2.38;;;;;;;;;;5087163;28;20082;-83
2023/06/30 05:16:26;;;;;;;3.38;2.53;;;;;;;;;;5092480;28;20420;-86
2023/06/30 05:18:52;;;;;;;3.72;2.90;;;;;;;;;;5089654;28;20028;-87
2023/06/30 05:21:17;;;;;;;5.55;2.30;;;;;;;;;;5091689;28;20051;-88
2023/06/30 05:23:43;;;;;;;3.60;2.33;;;;;;;;;;5086014;28;20133;-88
2023/06/30 05:26:09;;;;;;;3.65;2.15;;;;;;;;;;5089979;28;20024;-88
2023/06/30 05:28:35;;;;;;;3.90;2.90;;;;;;;;;;5086336;28;20032;-88
2023/06/30 05:31:00;;;;;;;5.28;2.85;;;;;;;;;;5086530;28;20475;-88
2023/06/30 05:33:26;;;;;;;2.40;2.05;;;;;;;;;;5094899;28;20029;-88
2023/06/30 05:35:51;;;;;;;3.33;2.50;;;;;;;;;;5087832;28;20077;-87
2023/06/30 05:38:17;;;;;;;5.03;2.33;;;;;;;;;;5094542;28;20020;-87
2023/06/30 05:40:42;;;;;;;3.33;2.08;;;;;;;;;;5090676;28;20032;-80
2023/06/30 05:43:08;;;;;;;3.83;2.50;;;;;;;;;;5090562;28;20024;-82
2023/06/30 05:45:34;;;;;;;3.75;2.45;;;;;;;;;;5087210;28;20031;-80
2023/06/30 05:47:59;;;;;;;2.88;2.60;;;;;;;;;;5094575;28;20028;-85
2023/06/30 05:50:27;;;;;;;2.83;2.25;;;;;;;;;;5095152;28;20036;-83
2023/06/30 05:52:52;;;;;;;3.28;2.08;;;;;;;;;;5087259;28;20040;-80
2023/06/30 05:55:17;;;;;;;4.43;3.08;;;;;;;;;;5093037;28;20024;-86
2023/06/30 05:57:43;;;;;;;2.70;2.13;;;;;;;;;;5091467;28;20028;-84
2023/06/30 06:00:09;;;;;;;3.78;2.72;;;;;;;;;;5091147;28;20051;-85
2023/06/30 06:02:34;;;;;;;4.63;3.00;;;;;;;;;;5093922;28;20725;-84
2023/06/30 06:04:59;;;;;;;3.85;2.97;;;;;;;;;;5093812;28;20027;-84
2023/06/30 06:07:25;;;;;;;3.63;2.50;;;;;;;;;;5092543;28;20032;-84
2023/06/30 06:09:50;;;;;;;3.80;3.47;;;;;;;;;;5089732;28;20532;-83
2023/06/30 06:12:16;;;;;;;4.45;2.70;;;;;;;;;;5090870;28;20024;-84
2023/06/30 06:14:41;;;;;;;2.67;2.20;;;;;;;;;;5093288;28;20020;-85
2023/06/30 06:17:07;;;;;;;2.72;2.20;;;;;;;;;;5092793;28;20498;-84
2023/06/30 06:19:33;;;;;;;3.10;2.22;;;;;;;;;;5094020;28;20047;-85
2023/06/30 06:21:58;;;;;;;2.67;2.22;;;;;;;;;;5094440;28;20028;-88
2023/06/30 06:24:24;;;;;;;3.97;3.55;;;;;;;;;;5088258;28;20032;-84
2023/06/30 06:26:49;;;;;;;5.90;2.20;;;;;;;;;;5093313;28;20020;-86
2023/06/30 06:29:21;;;;;;;3.22;2.22;;;;;;;;;;5092615;28;20027;-84
2023/06/30 06:31:49;;;;;;;4.68;2.85;;;;;;;;;;5088164;28;20114;-84
2023/06/30 06:34:15;;;;;;;2.72;2.13;;;;;;;;;;5091138;28;20065;-85
2023/06/30 06:36:40;;;;;;;4.03;2.80;;;;;;;;;;5091284;28;20050;-83
2023/06/30 06:39:06;;;;;;;4.18;2.55;;;;;;;;;;5091456;28;20026;-84
2023/06/30 06:41:32;;;;;;;3.78;2.58;;;;;;;;;;5090534;28;20031;-84
2023/06/30 06:43:57;;;;;;;4.28;2.10;;;;;;;;;;5090120;28;20471;-84
2023/06/30 06:46:24;;;;;;;3.20;1.48;;;;;;;;;;5093493;28;20038;-84
2023/06/30 06:48:49;;;;;;;2.92;2.08;;;;;;;;;;5092260;28;20043;-84
2023/06/30 06:51:15;;;;;;;3.42;2.70;;;;;;;;;;5088275;28;20479;-83
2023/06/30 06:53:40;;;;;;;6.97;2.58;;;;;;;;;;5093164;28;20036;-84
2023/06/30 06:56:06;;;;;;;3.00;2.22;;;;;;;;;;5091601;28;20467;-84
2023/06/30 06:58:35;;;;;;;3.20;2.65;;;;;;;;;;5093123;28;20057;-85
2023/06/30 07:01:01;;;;;;;2.15;1.73;;;;;;;;;;5090307;28;20020;-86
2023/06/30 07:03:27;;;;;;;6.75;2.72;;;;;;;;;;5091441;28;20028;-87
2023/06/30 07:05:53;;;;;;;3.10;2.50;;;;;;;;;;5092101;28;20043;-83
2023/06/30 07:08:19;;;;;;;2.78;2.05;;;;;;;;;;5086825;28;20019;-84
2023/06/30 07:10:46;;;;;;;4.75;2.35;;;;;;;;;;5085632;28;20112;-83
2023/06/30 07:13:14;;;;;;;2.40;1.58;;;;;;;;;;5091506;28;20111;-87
2023/06/30 07:15:39;;;;;;;2.63;2.28;;;;;;;;;;5090634;28;20038;-85
2023/06/30 07:18:05;;;;;;;3.83;2.17;;;;;;;;;;5088314;28;20111;-83
2023/06/30 07:20:30;;;;;;;2.47;2.15;;;;;;;;;;5088797;28;20036;-82
2023/06/30 07:22:56;;;;;;;5.57;2.00;;;;;;;;;;5090482;28;20372;-85
2023/06/30 07:25:26;;;;;;;2.95;2.00;;;;;;;;;;5089310;28;20101;-83
2023/06/30 07:27:56;;;;;;;1.75;1.48;;;;;;;;;;5086754;28;20391;-84
2023/06/30 07:30:26;;;;;;;3.97;2.03;;;;;;;;;;5089787;28;20233;-81
2023/06/30 07:32:51;;;;;;;;;;;;;;;;;;5087583;28;20031;-83
2023/06/30 07:35:17;;;;;;;3.92;1.33;;;;;;;;;;5087546;28;19912;-84
2023/06/30 07:37:47;;;;;;;1.27;1.02;;;;;;;;;;5088306;28;20020;-83
2023/06/30 07:40:13;;;;;;;1.58;1.20;;;;;;;;;;5087535;28;20081;-82
2023/06/30 07:42:39;;;;;;;2.28;1.70;;;;;;;;;;5090866;28;20043;-83
2023/06/30 07:45:15;;;;;;;1.13;0.98;;;;;;;;;;5089894;28;20027;-84
2023/06/30 07:47:42;;;;;;;2.13;1.58;;;;;;;;;;5090779;28;20084;-83
2023/06/30 07:50:12;;;;;;;2.05;1.30;;;;;;;;;;5081433;28;20467;-84
2023/06/30 07:52:46;;;;;;;0.85;0.70;;;;;;;;;;5090331;28;20111;-83
2023/06/30 07:55:12;;;;;;;1.48;1.30;;;;;;;;;;5090169;28;20085;-79
2023/06/30 07:57:38;;;;;;;1.98;1.73;;;;;;;;;;5090588;28;20024;-80
2023/06/30 08:00:05;;;;;;;2.38;1.73;;;;;;;;;;5090709;28;20600;-81
2023/06/30 08:02:30;;;;;;;3.22;1.90;;;;;;;;;;5090704;28;20472;-79
2023/06/30 08:04:56;;;;;;;4.00;2.17;;;;;;;;;;5092169;28;20020;-81
2023/06/30 08:07:21;;;;;;;5.13;1.60;;;;;;;;;;5089802;28;20035;-80
2023/06/30 08:09:47;;;;;;;1.75;1.45;;;;;;;;;;5089786;28;20092;-80
2023/06/30 08:12:12;;;;;;;1.67;1.30;;;;;;;;;;5090662;28;20095;-80
2023/06/30 08:14:38;;;;;;;1.83;1.52;;;;;;;;;;5089241;28;20039;-80
2023/06/30 08:17:03;;;;;;;1.65;1.42;;;;;;;;;;5092212;28;20036;-80
2023/06/30 08:19:29;;;;;;;1.42;1.20;;;;;;;;;;5090527;28;20085;-79
2023/06/30 08:21:54;;;;;;;2.10;1.63;;;;;;;;;;5091113;28;20024;-80
2023/06/30 08:24:20;;;;;;;1.42;1.15;;;;;;;;;;5089512;28;20031;-83
2023/06/30 08:26:46;;;;;;;2.25;1.70;;;;;;;;;;5089870;28;20024;-78
2023/06/30 08:29:11;;;;;;;1.20;1.10;;;;;;;;;;5089497;28;20532;-78
2023/06/30 08:31:37;;;;;;;1.35;1.23;;;;;;;;;;5089059;28;20023;-80
2023/06/30 08:34:04;;;;;;;1.20;0.95;;;;;;;;;;5089369;28;20016;-80
2023/06/30 08:36:29;;;;;;;1.77;1.38;;;;;;;;;;5090892;28;20391;-81
2023/06/30 08:38:55;;;;;;;1.77;1.48;;;;;;;;;;5087515;28;20050;-80
2023/06/30 08:41:20;;;;;;;1.55;1.27;;;;;;;;;;5090561;28;20115;-81
2023/06/30 08:43:47;;;;;;;1.98;1.50;;;;;;;;;;5089119;28;20016;-81
2023/06/30 08:46:16;;;;;;;1.50;1.40;;;;;;;;;;5088703;28;20032;-79
2023/06/30 08:48:42;;;;;;;1.30;1.20;;;;;;;;;;5088812;28;20111;-80
2023/06/30 08:51:09;;;;;;;0.88;0.88;;;;;;;;;;5088946;28;20471;-79
2023/06/30 08:53:35;;;;;;;1.48;1.33;;;;;;;;;;5088112;28;20032;-80
2023/06/30 08:56:03;;;;;;;1.20;1.05;;;;;;;;;;5087123;28;20027;-80
2023/06/30 08:58:28;;;;;;;2.15;1.17;;;;;;;;;;5088109;28;20445;-79
2023/06/30 09:00:58;;;;;;;1.42;1.33;;;;;;;;;;5087281;28;20020;-78
2023/06/30 09:03:23;;;;;;;1.33;1.23;;;;;;;;;;5089298;28;20089;-78
2023/06/30 09:05:58;;;;;;;1.27;1.00;;;;;;;;;;5093080;28;20040;-83
2023/06/30 09:08:33;;;;;;;0.98;0.88;;;;;;;;;;5092987;28;20400;-79
2023/06/30 09:10:59;;;;;;;0.93;0.77;;;;;;;;;;5093231;28;20292;-81
2023/06/30 09:13:25;;;;;;;2.70;1.70;;;;;;;;;;5089798;28;20060;-83
2023/06/30 09:15:55;;;;;;;3.70;1.83;;;;;;;;;;5086630;28;20538;-84
2023/06/30 09:18:21;;;;;;;1.17;1.08;;;;;;;;;;5093364;28;20024;-84
2023/06/30 09:20:47;;;;;;;8.40;1.63;;;;;;;;;;5093549;28;20028;-85
2023/06/30 09:23:14;;;;;;;2.47;2.05;;;;;;;;;;5088987;28;20020;-87
2023/06/30 09:25:40;;;;;;;2.17;1.20;;;;;;;;;;5094254;28;20035;-86
2023/06/30 09:28:11;;;;;;;1.52;1.00;;;;;;;;;;5091086;28;20027;-86
2023/06/30 09:30:40;;;;;;;0.80;0.80;;;;;;;;;;5090945;28;20468;-86
2023/06/30 09:33:06;;;;;;;2.07;1.23;;;;;;;;;;5088228;28;20430;-85
2023/06/30 09:35:42;;;;;;;1.25;1.10;;;;;;;;;;5095412;28;20416;-84
2023/06/30 09:38:12;;;;;;;1.23;1.13;;;;;;;;;;5089151;28;20051;-85
2023/06/30 09:40:44;;;;;;;2.22;1.77;;;;;;;;;;5093808;28;20031;-87
2023/06/30 09:43:35;;;;;;;1.58;1.42;;;;;;;;;;5093375;28;20046;-85
2023/06/30 09:46:09;;;;;;;1.20;1.10;;;;;;;;;;5092692;28;20024;-86
2023/06/30 09:48:39;;;;;;;2.47;1.75;;;;;;;;;;5093331;28;20105;-88
2023/06/30 09:51:09;;;;;;;2.40;1.73;;;;;;;;;;5093397;28;20032;-86
2023/06/30 09:53:36;;;;;;;2.15;1.50;;;;;;;;;;5092546;28;20036;-87
2023/06/30 09:56:03;;;;;;;2.67;1.40;;;;;;;;;;5092562;28;20032;-84
2023/06/30 09:58:30;;;;;;;6.03;1.17;;;;;;;;;;5093578;28;20429;-85
2023/06/30 10:01:00;;;;;;;2.05;1.70;;;;;;;;;;5091078;28;20032;-87
2023/06/30 10:03:26;;;;;;;1.77;1.15;;;;;;;;;;5093889;28;20462;-88
2023/06/30 10:05:53;;;;;;;1.70;1.45;;;;;;;;;;5092881;28;20043;-84
2023/06/30 10:08:21;;;;;;;1.27;1.17;;;;;;;;;;5076198;28;20031;-83
2023/06/30 10:10:47;;;;;;;1.58;1.35;;;;;;;;;;5090104;28;20416;-85
2023/06/30 10:13:15;;;;;;;3.00;1.98;;;;;;;;;;5090587;28;20111;-83
2023/06/30 10:15:42;;;;;;;2.33;1.73;;;;;;;;;;5092621;28;20024;-84
2023/06/30 10:18:12;;;;;;;3.50;1.90;;;;;;;;;;5093501;28;20028;-84
2023/06/30 10:20:38;;;;;;;1.77;1.40;;;;;;;;;;5092720;28;20032;-83
2023/06/30 10:23:04;;;;;;;2.15;1.48;;;;;;;;;;5092266;28;20165;-84
2023/06/30 10:25:34;;;;;;;1.27;1.17;;;;;;;;;;5095897;28;20080;-85
2023/06/30 10:27:59;;;;;;;1.88;1.33;;;;;;;;;;5092435;28;20063;-86
2023/06/30 10:30:25;;;;;;;2.42;1.80;;;;;;;;;;5095847;28;20036;-84
2023/06/30 10:32:51;;;;;;;2.20;1.75;;;;;;;;;;5095622;28;20028;-81
2023/06/30 10:35:18;;;;;;;1.30;1.20;;;;;;;;;;5096783;28;20028;-85
2023/06/30 10:37:43;;;;;;;1.70;1.42;;;;;;;;;;5093113;28;20472;-83
2023/06/30 10:40:26;;;;;;;2.33;1.48;;;;;;;;;;5096130;28;20038;-82
2023/06/30 10:42:54;;;;;;;2.25;1.73;;;;;;;;;;5092289;28;20095;-84
2023/06/30 10:45:20;;;;;;;2.33;1.77;;;;;;;;;;5092836;28;20024;-85
2023/06/30 10:47:50;;;;;;;4.13;1.73;;;;;;;;;;5094574;28;20032;-85
2023/06/30 10:50:16;;;;;;;1.67;1.55;;;;;;;;;;5093240;28;20086;-84
2023/06/30 10:52:53;;;;;;;2.20;1.60;;;;;;;;;;5094572;28;20467;-85
2023/06/30 10:55:22;;;;;;;2.30;1.55;;;;;;;;;;5094547;28;20020;-85
2023/06/30 10:57:49;;;;;;;;;;;;;;;;;;5094056;28;20020;-84
2023/06/30 11:00:15;;;;;;;5.50;1.63;;;;;;;;;;5091791;28;19938;-84
2023/06/30 11:02:48;;;;;;;2.50;2.30;;;;;;;;;;5092066;28;20036;-85
2023/06/30 11:05:23;;;;;;;2.10;1.77;;;;;;;;;;5092282;28;20028;-84
2023/06/30 11:07:53;;;;;;;1.50;1.30;;;;;;;;;;5092147;28;20028;-86
2023/06/30 11:10:33;;;;;;;1.92;1.63;;;;;;;;;;5088049;28;20110;-84
2023/06/30 11:13:05;;;;;;;1.35;1.20;;;;;;;;;;5090173;28;20089;-82
2023/06/30 11:15:48;;;;;;;0.93;0.90;;;;;;;;;;5089520;28;20551;-84
2023/06/30 11:18:22;;;;;;;2.28;1.27;;;;;;;;;;5091308;28;20099;-85
2023/06/30 11:21:00;;;;;;;2.17;1.83;;;;;;;;;;5090646;28;20031;-84
2023/06/30 11:23:39;;;;;;;1.05;0.95;;;;;;;;;;5094429;28;20050;-86
2023/06/30 11:26:18;;;;;;;1.48;1.30;;;;;;;;;;5093518;28;20107;-81
2023/06/30 11:28:50;;;;;;;1.88;1.48;;;;;;;;;;5093396;28;20024;-81
2023/06/30 11:31:17;;;;;;;1.60;1.40;;;;;;;;;;5093409;28;20024;-81
2023/06/30 11:33:43;;;;;;;1.90;1.48;;;;;;;;;;5092015;28;20161;-81
2023/06/30 11:36:13;;;;;;;2.83;1.95;;;;;;;;;;5090925;28;20089;-80
2023/06/30 11:38:49;;;;;;;1.55;1.40;;;;;;;;;;5094028;28;20020;-81
2023/06/30 11:41:21;;;;;;;2.53;1.70;;;;;;;;;;5092970;28;20028;-79
2023/06/30 11:43:53;;;;;;;2.17;1.52;;;;;;;;;;5091500;28;20039;-79
2023/06/30 11:46:19;;;;;;;1.30;1.20;;;;;;;;;;5093687;28;20047;-79
2023/06/30 11:48:44;;;;;;;2.38;1.48;;;;;;;;;;5093668;28;20452;-78
2023/06/30 11:51:11;;;;;;;1.40;1.30;;;;;;;;;;5091186;28;20038;-80
2023/06/30 11:53:42;;;;;;;1.83;1.58;;;;;;;;;;5088477;28;20040;-80
2023/06/30 11:56:07;;;;;;;6.60;1.70;;;;;;;;;;5089234;28;20051;-87
2023/06/30 11:58:33;;;;;;;1.30;1.13;;;;;;;;;;5092660;28;20054;-89
2023/06/30 12:01:03;;;;;;;1.88;1.55;;;;;;;;;;5091142;28;20119;-81
2023/06/30 12:03:28;;;;;;;1.70;1.52;;;;;;;;;;5087651;28;20122;-82
2023/06/30 12:05:58;;;;;;;1.80;1.40;;;;;;;;;;5088500;28;20503;-83
2023/06/30 12:08:26;;;;;;;1.60;1.25;;;;;;;;;;5087623;28;20077;-81
2023/06/30 12:10:52;;;;;;;1.20;1.10;;;;;;;;;;5088056;28;20817;-82
2023/06/30 12:13:17;;;;;;;1.33;1.20;;;;;;;;;;5090522;28;20027;-82
2023/06/30 12:15:43;;;;;;;1.25;1.00;;;;;;;;;;5090279;28;20032;-81
2023/06/30 12:18:09;;;;;;;0.80;0.70;;;;;;;;;;5088481;28;20491;-85
2023/06/30 12:20:36;;;;;;;0.60;0.60;;;;;;;;;;5121664;27;20834;-83
2023/06/30 12:23:06;;;;;;;0.85;0.60;;;;;;;;;;5089603;28;20023;-82
2023/06/30 12:25:36;;;;;;;0.65;0.50;;;;;;;;;;5086529;28;20040;-83
2023/06/30 12:28:05;;;;;;;0.57;0.57;;;;;;;;;;5090241;28;20023;-80
2023/06/30 12:30:31;;;;;;;0.40;0.40;;;;;;;;;;5088852;28;20395;-81
2023/06/30 12:32:58;;;;;;;0.70;0.70;;;;;;;;;;5091265;28;20023;-85
2023/06/30 12:35:50;;;;;;;0.47;0.35;;;;;;;;;;5088265;28;20036;-84
2023/06/30 12:38:15;;;;;;;0.68;0.65;;;;;;;;;;5087190;28;20063;-85
2023/06/30 12:40:41;;;;;;;0.52;0.52;;;;;;;;;;5090464;28;20056;-84
2023/06/30 12:43:06;;;;;;;0.52;0.50;;;;;;;;;;5089610;28;20020;-86
2023/06/30 12:45:32;;;;;;;0.82;0.57;;;;;;;;;;5089465;28;20428;-84
2023/06/30 12:47:57;;;;;;;0.60;0.57;;;;;;;;;;5089134;28;20489;-84
2023/06/30 12:50:22;;;;;;;1.15;0.47;;;;;;;;;;5090764;28;20133;-84
2023/06/30 12:52:48;;;;;;;0.50;0.50;;;;;;;;;;5084648;28;20028;-84
2023/06/30 12:55:14;;;;;;;0.32;0.32;;;;;;;;;;5087741;28;20024;-82
2023/06/30 12:57:42;;;;;;;0.47;0.47;;;;;;;;;;5089400;28;20375;-83
2023/06/30 13:00:11;;;;;;;0.87;0.60;;;;;;;;;;5089562;28;20391;-82
2023/06/30 13:02:37;;;;;;;0.30;0.30;;;;;;;;;;5089873;28;20030;-83
2023/06/30 13:05:06;;;;;;;0.47;0.43;;;;;;;;;;5090605;28;20522;-82
2023/06/30 13:07:32;;;;;;;1.27;0.57;;;;;;;;;;5089281;28;22079;-80
2023/06/30 13:10:01;;;;;;;0.40;0.32;;;;;;;;;;5083671;28;22788;-79
2023/06/30 13:12:29;;;;;;;0.30;0.30;;;;;;;;;;5087998;28;20391;-80
2023/06/30 13:14:55;;;;;;;0.90;0.60;;;;;;;;;;5087153;28;20074;-80
2023/06/30 13:17:21;;;;;;;0.55;0.55;;;;;;;;;;5087865;28;20483;-80
2023/06/30 13:19:47;;;;;;;0.60;0.60;;;;;;;;;;5089423;28;20038;-79
2023/06/30 13:22:13;;;;;;;0.32;0.32;;;;;;;;;;5087589;28;20082;-79
2023/06/30 13:24:39;;;;;;;0.50;0.50;;;;;;;;;;5086341;28;20455;-81
2023/06/30 13:27:05;;;;;;;0.82;0.45;;;;;;;;;;5088996;28;20027;-80
2023/06/30 13:29:31;;;;;;;0.40;0.40;;;;;;;;;;5087709;28;20024;-79
2023/06/30 13:31:57;;;;;;;0.68;0.65;;;;;;;;;;5088185;28;20103;-78
2023/06/30 13:34:23;;;;;;;0.82;0.50;;;;;;;;;;5089376;28;20107;-78
2023/06/30 13:36:49;;;;;;;0.77;0.70;;;;;;;;;;5088507;28;20039;-78
2023/06/30 13:39:14;;;;;;;0.70;0.63;;;;;;;;;;5087459;28;20114;-79
2023/06/30 13:41:39;;;;;;;0.65;0.52;;;;;;;;;;5089320;28;20115;-78
2023/06/30 13:44:05;;;;;;;1.02;0.55;;;;;;;;;;5087223;28;21461;-79
2023/06/30 13:46:31;;;;;;;0.40;0.40;;;;;;;;;;5089138;28;20048;-79
2023/06/30 13:48:56;;;;;;;0.47;0.47;;;;;;;;;;5089646;28;20043;-80
2023/06/30 13:51:22;;;;;;;2.95;0.50;;;;;;;;;;5090747;28;20028;-79
2023/06/30 13:53:48;;;;;;;0.85;0.75;;;;;;;;;;5091962;28;20044;-79
2023/06/30 13:56:13;;;;;;;0.70;0.60;;;;;;;;;;5092509;28;20424;-80
2023/06/30 13:58:40;;;;;;;0.60;0.60;;;;;;;;;;5092136;28;20106;-80
2023/06/30 14:01:05;;;;;;;0.93;0.50;;;;;;;;;;5091245;28;20031;-81
2023/06/30 14:03:31;;;;;;;0.40;0.40;;;;;;;;;;5091972;28;20020;-79
2023/06/30 14:05:57;;;;;;;0.40;0.40;;;;;;;;;;5089848;28;20107;-79
2023/06/30 14:08:22;;;;;;;0.50;0.50;;;;;;;;;;5092955;28;20078;-79
2023/06/30 14:10:48;;;;;;;0.52;0.35;;;;;;;;;;5092101;28;20020;-78
2023/06/30 14:13:13;;;;;;;0.68;0.55;;;;;;;;;;5091635;28;20035;-79
2023/06/30 14:15:39;;;;;;;0.50;0.50;;;;;;;;;;5091458;28;20059;-79
2023/06/30 14:18:04;;;;;;;0.85;0.70;;;;;;;;;;5092389;28;20063;-79
2023/06/30 14:20:30;;;;;;;0.40;0.35;;;;;;;;;;5090700;28;20032;-79
2023/06/30 14:22:56;;;;;;;0.73;0.52;;;;;;;;;;5091989;28;20463;-81
2023/06/30 14:25:23;;;;;;;0.88;0.70;;;;;;;;;;5093959;28;20042;-79
2023/06/30 14:27:49;;;;;;;0.63;0.50;;;;;;;;;;5090731;28;20369;-80
2023/06/30 14:30:16;;;;;;;0.40;0.40;;;;;;;;;;5092651;28;20042;-79
2023/06/30 14:32:42;;;;;;;3.97;0.85;;;;;;;;;;5091868;28;21190;-80
2023/06/30 14:35:08;;;;;;;0.88;0.65;;;;;;;;;;5091678;28;20086;-80
2023/06/30 14:37:34;;;;;;;0.70;0.63;;;;;;;;;;5088949;28;20027;-80
2023/06/30 14:40:00;;;;;;;1.10;1.00;;;;;;;;;;5091207;28;20379;-80
2023/06/30 14:42:26;;;;;;;0.50;0.50;;;;;;;;;;5092437;28;20028;-81
2023/06/30 14:44:51;;;;;;;1.20;0.70;;;;;;;;;;5089034;28;20048;-81
2023/06/30 14:47:16;;;;;;;0.50;0.50;;;;;;;;;;5091977;28;20034;-80
2023/06/30 14:49:42;;;;;;;0.40;0.40;;;;;;;;;;5089833;28;20081;-80
2023/06/30 14:52:07;;;;;;;1.00;0.80;;;;;;;;;;5090952;28;20027;-80
2023/06/30 14:54:33;;;;;;;0.77;0.70;;;;;;;;;;5089368;28;20060;-78
2023/06/30 14:56:58;;;;;;;1.25;0.93;;;;;;;;;;5091335;28;20035;-78
2023/06/30 14:59:24;;;;;;;1.17;0.93;;;;;;;;;;5090631;28;20170;-80
2023/06/30 15:01:49;;;;;;;1.52;1.23;;;;;;;;;;5090569;28;20035;-78